地図

経路データ

SID SEASON NUMBER BASIN SUBBASIN NAME ISO_TIME NATURE LAT LON WMO_WIND WMO_PRES WMO_AGENCY TRACK_TYPE DIST2LAND LANDFALL IFLAG USA_AGENCY USA_ATCF_ID USA_LAT USA_LON USA_RECORD USA_STATUS USA_WIND USA_PRES USA_SSHS USA_R34_NE USA_R34_SE USA_R34_SW USA_R34_NW USA_R50_NE USA_R50_SE USA_R50_SW USA_R50_NW USA_R64_NE USA_R64_SE USA_R64_SW USA_R64_NW USA_POCI USA_ROCI USA_RMW USA_EYE TOKYO_LAT TOKYO_LON TOKYO_GRADE TOKYO_WIND TOKYO_PRES TOKYO_R50_DIR TOKYO_R50_LONG TOKYO_R50_SHORT TOKYO_R30_DIR TOKYO_R30_LONG TOKYO_R30_SHORT TOKYO_LAND CMA_LAT CMA_LON CMA_CAT CMA_WIND CMA_PRES HKO_LAT HKO_LON HKO_CAT HKO_WIND HKO_PRES NEWDELHI_LAT NEWDELHI_LON NEWDELHI_GRADE NEWDELHI_WIND NEWDELHI_PRES NEWDELHI_CI NEWDELHI_DP NEWDELHI_POCI REUNION_LAT REUNION_LON REUNION_TYPE REUNION_WIND REUNION_PRES REUNION_TNUM REUNION_CI REUNION_RMW REUNION_R34_NE REUNION_R34_SE REUNION_R34_SW REUNION_R34_NW REUNION_R50_NE REUNION_R50_SE REUNION_R50_SW REUNION_R50_NW REUNION_R64_NE REUNION_R64_SE REUNION_R64_SW REUNION_R64_NW BOM_LAT BOM_LON BOM_TYPE BOM_WIND BOM_PRES BOM_TNUM BOM_CI BOM_RMW BOM_R34_NE BOM_R34_SE BOM_R34_SW BOM_R34_NW BOM_R50_NE BOM_R50_SE BOM_R50_SW BOM_R50_NW BOM_R64_NE BOM_R64_SE BOM_R64_SW BOM_R64_NW BOM_ROCI BOM_POCI BOM_EYE BOM_POS_METHOD BOM_PRES_METHOD NADI_LAT NADI_LON NADI_CAT NADI_WIND NADI_PRES WELLINGTON_LAT WELLINGTON_LON WELLINGTON_WIND WELLINGTON_PRES DS824_LAT DS824_LON DS824_STAGE DS824_WIND DS824_PRES TD9636_LAT TD9636_LON TD9636_STAGE TD9636_WIND TD9636_PRES TD9635_LAT TD9635_LON TD9635_WIND TD9635_PRES TD9635_ROCI NEUMANN_LAT NEUMANN_LON NEUMANN_CLASS NEUMANN_WIND NEUMANN_PRES MLC_LAT MLC_LON MLC_CLASS MLC_WIND MLC_PRES USA_GUST BOM_GUST BOM_GUST_PER REUNION_GUST REUNION_GUST_PER USA_SEAHGT USA_SEARAD_NE USA_SEARAD_SE USA_SEARAD_SW USA_SEARAD_NW STORM_SPEED STORM_DIR
1959353S06156 1960 109 SP EA NOT_NAMED 1959-12-19 11:00:00 NR -5.80000 156.000 main 63 63 __________O___ -1 -5.80000 156.000 7 5 95
1959353S06156 1960 109 SP EA NOT_NAMED 1959-12-19 12:00:00 TS -5.80672 156.076 main 71 71 O________OP___ jtwc_sh SH041960 -5.80000 156.100 -1 -5.80000 156.100 TC -5.81344 156.052 7 4 100
1959353S06156 1960 109 SP EA NOT_NAMED 1959-12-19 15:00:00 TS -5.84369 156.240 main 78 78 P________PP___ SH041960 -5.83251 156.268 -1 -5.83251 156.268 TC -5.85858 156.204 7 3 109
1959353S06156 1960 109 SP EA NOT_NAMED 1959-12-19 18:00:00 TS -5.90847 156.376 main 86 78 O________OP___ jtwc_sh SH041960 -5.90000 156.400 -1 -5.90000 156.400 TC -5.92118 156.340 7 3 129
1959353S06156 1960 109 SP EA NOT_NAMED 1959-12-19 21:00:00 TS -6.02312 156.465 main 78 67 P________PP___ SH041960 -6.02749 156.473 -1 -6.02749 156.473 TC -6.01438 156.449 7 3 150
1959353S06156 1960 109 SP EA NOT_NAMED 1959-12-19 23:00:00 TS -6.11633 156.496 999 bom main 67 56 P_____O__PO___ SH041960 -6.13904 156.494 -1 -6.00000 156.500 999 -6.13904 156.494 TC -6.10000 156.500 7 3 166
1959353S06156 1960 109 SP EA NOT_NAMED 1959-12-20 00:00:00 TS -6.16647 156.504 main 56 33 O_____P__OP___ jtwc_sh SH041960 -6.20000 156.500 -1 -6.09628 156.495 999 -6.20000 156.500 TC -6.15112 156.518 7 4 177
1959353S06156 1960 109 SP EA NOT_NAMED 1959-12-20 03:00:00 TS -6.37545 156.507 main 33 11 P_____P__PP___ SH041960 -6.39250 156.515 -1 -6.37970 156.475 999 -6.39250 156.515 TC -6.33255 156.541 7 4 184
1959353S06156 1960 109 SP EA NOT_NAMED 1959-12-20 06:00:00 TS -6.60612 156.475 main 11 0 O_____P__OP___ jtwc_sh SH041960 -6.60000 156.500 -1 -6.64355 156.437 999 -6.60000 156.500 TC -6.54151 156.521 7 5 191
1959353S06156 1960 109 SP EA NOT_NAMED 1959-12-20 09:00:00 TS -6.82975 156.418 main 11 11 P_____P__PP___ SH041960 -6.80749 156.472 -1 -6.87318 156.369 999 -6.80749 156.472 TC -6.75924 156.461 7 5 198
1959353S06156 1960 109 SP EA NOT_NAMED 1959-12-20 11:00:00 TS -6.96353 156.361 999 bom main 31 31 P_____O__PO___ SH041960 -6.93904 156.431 -1 -7.00000 156.300 999 -6.93904 156.431 TC -6.90000 156.400 1 4 207
1959353S06156 1960 109 SP EA NOT_NAMED 1959-12-20 12:00:00 TS -7.02222 156.324 main 35 35 O_____P__OP___ jtwc_sh SH041960 -7.00000 156.400 -1 -7.05433 156.257 999 -7.00000 156.400 TC -6.95678 156.364 1 4 220
1959353S06156 1960 109 SP EA NOT_NAMED 1959-12-20 15:00:00 TS -7.17399 156.183 main 49 46 P_____P__PP___ SH041960 -7.15001 156.265 -1 -7.19871 156.107 999 -7.15001 156.265 TC -7.11956 156.229 1 4 224
1959353S06156 1960 109 SP EA NOT_NAMED 1959-12-20 17:00:00 TS -7.27378 156.076 999 bom main 57 55 P_____O__PP___ SH041960 -7.24692 156.155 -1 -7.30000 156.000 999 -7.24692 156.155 TC -7.22756 156.123 1 4 226
1959353S06156 1960 109 SP EA NOT_NAMED 1959-12-20 18:00:00 TS -7.32777 156.023 main 55 55 O_____P__OP___ jtwc_sh SH041960 -7.30000 156.100 -1 -7.35571 155.947 999 -7.30000 156.100 TC -7.28314 156.067 1 5 220
1959353S06156 1960 109 SP EA NOT_NAMED 1959-12-20 21:00:00 TS -7.50821 155.877 main 70 70 P_____P__PP___ SH041960 -7.47750 155.950 -1 -7.54543 155.792 999 -7.47750 155.950 TC -7.46315 155.902 1 5 216
1959353S06156 1960 109 SP EA NOT_NAMED 1959-12-20 23:00:00 TS -7.65157 155.786 999 bom main 90 89 P_____O__PO___ SH041960 -7.61929 155.850 -1 -7.70000 155.700 999 -7.61929 155.850 TC -7.60000 155.800 1 5 211
1959353S06156 1960 109 SP EA NOT_NAMED 1959-12-21 00:00:00 TS -7.73666 155.739 main 89 89 O_____P__OP___ jtwc_sh SH041960 -7.70000 155.800 -1 -7.79645 155.658 998 -7.70000 155.800 TC -7.68685 155.739 1 6 206
1959353S06156 1960 109 SP EA NOT_NAMED 1959-12-21 03:00:00 TS -8.03567 155.595 main 123 123 P_____P__PP___ SH041960 -7.99251 155.635 -1 -8.11284 155.553 997 -7.99251 155.635 TC -7.97300 155.559 1 7 204
1959353S06156 1960 109 SP EA NOT_NAMED 1959-12-21 05:00:00 TS -8.23704 155.513 997 bom main 147 147 P_____O__PP___ SH041960 -8.20047 155.539 -1 -8.30000 155.500 997 -8.20047 155.539 TC -8.17236 155.458 1 6 202
1959353S06156 1960 109 SP EA NOT_NAMED 1959-12-21 06:00:00 TS -8.32772 155.478 main 158 158 O_____P__OP___ jtwc_sh SH041960 -8.30000 155.500 -1 -8.36781 155.473 997 -8.30000 155.500 TC -8.27081 155.418 1 5 200
1959353S06156 1960 109 SP EA NOT_NAMED 1959-12-21 09:00:00 TS -8.56274 155.391 main 193 193 P_____P__PP___ SH041960 -8.58744 155.375 -1 -8.51835 155.414 997 -8.58744 155.375 TC -8.54602 155.365 1 5 193
1959353S06156 1960 109 SP EA NOT_NAMED 1959-12-21 11:00:00 TS -8.68871 155.387 997 bom main 203 203 P_____O__PO___ SH041960 -8.74209 155.366 -1 -8.60000 155.400 997 -8.74209 155.366 TC -8.70000 155.400 1 4 0
1959353S06156 1960 109 SP EA NOT_NAMED 1959-12-21 12:00:00 TS -8.74027 155.412 main 203 184 O_____P__OP___ jtwc_sh SH041960 -8.80000 155.400 -1 -8.64814 155.399 996 -8.80000 155.400 TC -8.75320 155.460 1 4 128
1959353S06156 1960 109 SP EA NOT_NAMED 1959-12-21 15:00:00 TS -8.85032 155.597 main 188 158 P_____P__PP___ SH041960 -8.87257 155.690 -1 -8.79056 155.432 996 -8.87257 155.690 TC -8.87272 155.737 1 5 114
1959353S06156 1960 109 SP EA NOT_NAMED 1959-12-21 18:00:00 TS -8.93557 155.867 main 158 144 O_____P__OP___ jtwc_sh SH041960 -8.90000 156.100 -1 -8.93525 155.508 996 -8.90000 156.100 TC -8.95621 156.102 1 6 110
1959353S06156 1960 109 SP EA NOT_NAMED 1959-12-21 21:00:00 TS -9.04306 156.142 main 144 133 P_____P__PP___ SH041960 -8.97753 156.480 -1 -9.08904 155.616 996 -8.97753 156.480 TC -9.03481 156.479 1 6 114
1959353S06156 1960 109 SP EA NOT_NAMED 1959-12-21 23:00:00 TS -9.12976 156.312 996 bom main 133 133 P_____O__PO___ SH041960 -9.05264 156.706 -1 -9.20000 155.700 996 -9.05264 156.706 TC -9.10000 156.700 1 6 120
1959353S06156 1960 109 SP EA NOT_NAMED 1959-12-22 00:00:00 TS -9.17992 156.385 main 133 126 O_____P__OP___ jtwc_sh SH041960 -9.10000 156.800 -1 -9.25750 155.739 995 -9.10000 156.800 TC -9.14207 156.787 1 5 133
1959353S06156 1960 109 SP EA NOT_NAMED 1959-12-22 03:00:00 TS -9.35395 156.559 main 139 139 P_____P__PP___ SH041960 -9.28495 156.988 -1 -9.44001 155.871 995 -9.28495 156.988 TC -9.28234 157.015 1 5 140
1959353S06156 1960 109 SP EA NOT_NAMED 1959-12-22 06:00:00 TS -9.55120 156.697 main 155 152 O_____P__OP___ jtwc_sh SH041960 -9.50000 157.100 -1 -9.63751 156.022 995 -9.50000 157.100 TC -9.44851 157.184 1 5 145
1959353S06156 1960 109 SP EA NOT_NAMED 1959-12-22 09:00:00 TS -9.74886 156.841 main 162 162 P_____P__PP___ SH041960 -9.68499 157.252 -1 -9.85000 156.186 995 -9.68499 157.252 TC -9.64685 157.281 1 5 149
1959353S06156 1960 109 SP EA NOT_NAMED 1959-12-22 11:00:00 TS -9.89359 156.910 995 bom main 176 157 P_____O__PO___ SH041960 -9.82190 157.304 -1 -10.0000 156.300 995 -9.82190 157.304 TC -9.80000 157.300 2 1 34
1959353S06156 1960 109 SP EA NOT_NAMED 1959-12-22 12:00:00 TS -9.70239 156.882 main 157 149 O_____P__OP___ jtwc_sh SH041960 -9.90000 157.300 -1 -10.0768 156.350 994 -9.90000 157.300 TC -9.88693 157.273 2 2 343
1959353S06156 1960 109 SP EA NOT_NAMED 1959-12-22 15:00:00 TS -9.75717 156.874 main 166 166 P_____P__PP___ SH041960 -10.1851 157.115 -1 -10.3184 156.504 994 -10.1851 157.115 TC -10.1768 157.123 2 2 0
1959353S06156 1960 109 SP EA NOT_NAMED 1959-12-22 18:00:00 TS -9.87058 156.910 main 176 170 O_____P__OP___ jtwc_sh SH041960 -10.5000 156.900 -1 -10.5715 156.670 994 -10.5000 156.900 TC -10.4908 156.939 2 3 149
1959353S06156 1960 109 SP EA NOT_NAMED 1959-12-22 21:00:00 TS -10.0216 157.033 main 179 179 P_____P__PP___ SH041960 -10.8149 156.818 -1 -10.8291 156.858 994 -10.8149 156.818 TC -10.8039 156.810 2 5 147
1959353S06156 1960 109 SP EA NOT_NAMED 1959-12-22 23:00:00 TS -10.2146 157.136 994 bom main 195 190 P_____O__PO___ SH041960 -11.0114 156.850 -1 -11.0000 157.000 994 -11.0114 156.850 TC -11.0000 156.800 1 7 150
1959353S06156 1960 109 SP EA NOT_NAMED 1959-12-23 00:00:00 TS -10.3089 157.203 main 201 201 O_____P__OP___ jtwc_sh SH041960 -11.1000 156.900 -1 -11.0864 157.075 993 -11.1000 156.900 TC -11.0851 156.849 1 7 140
1959353S06156 1960 109 SP EA NOT_NAMED 1959-12-23 03:00:00 TS -10.5804 157.452 main 226 226 P_____P__PP___ SH041960 -11.3076 157.205 -1 -11.3417 157.320 992 -11.3076 157.205 TC -11.3240 157.096 1 8 136
1959353S06156 1960 109 SP EA NOT_NAMED 1959-12-23 05:00:00 TS -10.7606 157.642 992 bom main 247 246 P_____O__PP___ SH041960 -11.4329 157.471 -1 -11.5000 157.500 992 -11.4329 157.471 TC -11.4729 157.322 1 8 134
1959353S06156 1960 109 SP EA NOT_NAMED 1959-12-23 06:00:00 TS -10.8519 157.739 main 257 244 O_____P__OP___ jtwc_sh SH041960 -11.5000 157.600 -1 -11.5726 157.594 992 -11.5000 157.600 TC -11.5452 157.447 1 8 135
1959353S06156 1960 109 SP EA NOT_NAMED 1959-12-23 09:00:00 TS -11.1373 158.022 main 244 242 P_____P__PP___ SH041960 -11.7499 157.908 -1 -11.7728 157.894 992 -11.7499 157.908 TC -11.7581 157.842 1 8 137
1959353S06156 1960 109 SP EA NOT_NAMED 1959-12-23 11:00:00 TS -11.3318 158.198 992 bom main 242 242 P_____O__PO___ SH041960 -11.9197 158.103 -1 -11.9000 158.100 992 -11.9197 158.103 TC -11.9000 158.100 1 8 140
1959353S06156 1960 109 SP EA NOT_NAMED 1959-12-23 12:00:00 TS -11.4312 158.276 main 242 242 O_____P__OP___ jtwc_sh SH041960 -12.0000 158.200 -1 -11.9694 158.202 992 -12.0000 158.200 TC -11.9799 158.206 1 7 147
1959353S06156 1960 109 SP EA NOT_NAMED 1959-12-23 15:00:00 TS -11.7249 158.458 main 255 255 P_____P__PP___ SH041960 -12.2000 158.500 -1 -12.1808 158.509 992 -12.2000 158.500 TC -12.2216 158.519 1 7 150
1959353S06156 1960 109 SP EA NOT_NAMED 1959-12-23 18:00:00 TS -12.0227 158.627 main 279 279 O_____P__OP___ jtwc_sh SH041960 -12.4000 158.800 -1 -12.3887 158.815 992 -12.4000 158.800 TC -12.4568 158.823 1 7 149
1959353S06156 1960 109 SP EA NOT_NAMED 1959-12-23 21:00:00 TS -12.3298 158.822 main 300 300 P_____P__PP___ SH041960 -12.6650 159.107 -1 -12.5831 159.111 992 -12.6650 159.107 TC -12.6728 159.114 1 7 146
1959353S06156 1960 109 SP EA NOT_NAMED 1959-12-23 23:00:00 TS -12.5300 158.974 992 bom main 314 314 P_____O__PO___ SH041960 -12.8312 159.306 -1 -12.7000 159.300 992 -12.8312 159.306 TC -12.8000 159.300 1 8 142
1959353S06156 1960 109 SP EA NOT_NAMED 1959-12-24 00:00:00 TS -12.6258 159.060 main 322 322 O_____P__OP___ jtwc_sh SH041960 -12.9000 159.400 -1 -12.7504 159.391 991 -12.9000 159.400 TC -12.8563 159.391 1 8 135
1959353S06156 1960 109 SP EA NOT_NAMED 1959-12-24 03:00:00 TS -12.9060 159.364 main 344 341 P_____P__PP___ SH041960 -13.0225 159.658 -1 -12.8848 159.655 991 -13.0225 159.658 TC -13.0036 159.655 1 8 131
1959353S06156 1960 109 SP EA NOT_NAMED 1959-12-24 06:00:00 TS -13.1681 159.709 main 350 345 O_____P__OP___ jtwc_sh SH041960 -13.1000 159.900 -1 -13.0034 159.905 990 -13.1000 159.900 TC -13.1260 159.905 1 9 127
1959353S06156 1960 109 SP MM NOT_NAMED 1959-12-24 09:00:00 TS -13.4275 160.066 main 344 344 P_____P__PP___ SH041960 -13.2000 160.158 -1 -13.1188 160.144 990 -13.2000 160.158 TC -13.2328 160.144 1 9 125
1959353S06156 1960 109 SP MM NOT_NAMED 1959-12-24 11:00:00 TS -13.5744 160.310 990 bom main 353 348 P_____O__PO___ SH041960 -13.2667 160.322 -1 -13.2000 160.300 990 -13.2667 160.322 TC -13.3000 160.300 1 8 120
1959353S06156 1960 109 SP MM NOT_NAMED 1959-12-24 12:00:00 TS -13.6360 160.433 main 348 342 O_____P__OP___ jtwc_sh SH041960 -13.3000 160.400 -1 -13.2515 160.381 990 -13.3000 160.400 TC -13.3367 160.380 1 8 111
1959353S06156 1960 109 SP MM NOT_NAMED 1959-12-24 15:00:00 TS -13.7566 160.807 main 353 342 P_____P__PP___ SH041960 -13.3999 160.600 -1 -13.4138 160.619 990 -13.3999 160.600 TC -13.4412 160.613 1 7 104
1959353S06156 1960 109 SP MM NOT_NAMED 1959-12-24 18:00:00 TS -13.8127 161.174 main 342 337 O_____P__OP___ jtwc_sh SH041960 -13.5000 160.800 -1 -13.5752 160.847 990 -13.5000 160.800 TC -13.5399 160.840 1 7 96
1959353S06156 1960 109 SP MM NOT_NAMED 1959-12-24 21:00:00 TS -13.8285 161.540 main 337 336 P_____P__PP___ SH041960 -13.6000 161.050 -1 -13.7202 161.064 990 -13.6000 161.050 TC -13.6359 161.058 1 7 92
1959353S06156 1960 109 SP MM NOT_NAMED 1959-12-24 23:00:00 TS -13.8358 161.740 990 bom main 336 335 P_____O__PO___ SH041960 -13.6667 161.220 -1 -13.8000 161.200 990 -13.6667 161.220 TC -13.7000 161.200 1 5 93
1959353S06156 1960 109 SP MM NOT_NAMED 1959-12-25 00:00:00 TS -13.8443 161.817 main 335 335 O_____P__OP___ jtwc_sh SH041960 -13.7000 161.300 -1 -13.8239 161.265 990 -13.7000 161.300 TC -13.7309 161.273 1 3 114
1959353S06156 1960 109 SP MM NOT_NAMED 1959-12-25 03:00:00 TS -13.9164 161.930 main 347 347 P_____P__PP___ SH041960 -13.8000 161.508 -1 -13.8710 161.449 990 -13.8000 161.508 TC -13.8224 161.486 1 2 144
1959353S06156 1960 109 SP MM NOT_NAMED 1959-12-25 06:00:00 TS -14.0101 161.940 main 358 358 O_____P__OP___ jtwc_sh SH041960 -13.9000 161.700 -1 -13.9032 161.622 990 -13.9000 161.700 TC -13.9174 161.689 1 2 184
1959353S06156 1960 109 SP MM NOT_NAMED 1959-12-25 09:00:00 TS -14.0972 161.908 main 369 369 P_____P__PP___ SH041960 -13.9925 161.908 -1 -13.9486 161.789 990 -13.9925 161.908 TC -14.0219 161.881 1 2 200
1959353S06156 1960 109 SP MM NOT_NAMED 1959-12-25 11:00:00 TS -14.1678 161.882 990 bom main 380 380 P_____O__PO___ SH041960 -14.0610 162.039 -1 -14.0000 161.900 990 -14.0610 162.039 TC -14.1000 162.000 2 2 197
1959353S06156 1960 109 SP MM NOT_NAMED 1959-12-25 12:00:00 TS -14.2108 161.877 main 380 380 O_____P__OP___ jtwc_sh SH041960 -14.1000 162.100 -1 -14.0428 161.960 990 -14.1000 162.100 TC -14.1433 162.056 2 3 168
1959353S06156 1960 109 SP MM NOT_NAMED 1959-12-25 15:00:00 TS -14.3689 161.924 main 403 403 P_____P__PP___ SH041960 -14.2425 162.258 -1 -14.1992 162.139 990 -14.2425 162.258 TC -14.2841 162.210 2 4 161
1959353S06156 1960 109 SP MM NOT_NAMED 1959-12-25 18:00:00 TS -14.5503 161.995 main 425 425 O_____P__OP___ jtwc_sh SH041960 -14.4000 162.400 -1 -14.3832 162.316 990 -14.4000 162.400 TC -14.4366 162.355 2 4 160
1959353S06156 1960 109 SP MM NOT_NAMED 1959-12-25 21:00:00 TS -14.7301 162.058 main 436 436 P_____P__PP___ SH041960 -14.5500 162.550 -1 -14.5759 162.489 990 -14.5500 162.550 TC -14.5947 162.500 2 4 161
1959353S06156 1960 109 SP MM NOT_NAMED 1959-12-25 23:00:00 TS -14.8521 162.102 990 bom main 459 459 P_____O__PO___ SH041960 -14.6500 162.650 -1 -14.7000 162.600 990 -14.6500 162.650 TC -14.7000 162.600 2 4 160
1959353S06156 1960 109 SP MM NOT_NAMED 1959-12-26 00:00:00 TS -14.9117 162.126 main 459 459 O_____P__OP___ jtwc_sh SH041960 -14.7000 162.700 -1 -14.7484 162.652 990 -14.7000 162.700 TC -14.7451 162.656 2 4 158
1959353S06156 1960 109 SP MM NOT_NAMED 1959-12-26 03:00:00 TS -15.0894 162.199 main 463 453 P_____P__PP___ SH041960 -14.8425 162.843 -1 -14.8861 162.803 990 -14.8425 162.843 TC -14.8783 162.831 2 4 158
1959353S06156 1960 109 SP MM NOT_NAMED 1959-12-26 06:00:00 TS -15.2766 162.280 main 454 445 O_____P__OP___ jtwc_sh SH041960 -15.0000 163.000 -1 -15.0247 162.949 990 -15.0000 163.000 TC -15.0181 163.010 2 4 157
1959353S06156 1960 109 SP MM NOT_NAMED 1959-12-26 09:00:00 TS -15.4770 162.369 main 447 447 P_____P__PP___ SH041960 -15.1925 163.200 -1 -15.1797 163.097 990 -15.1925 163.200 TC -15.1772 163.187 2 4 156
1959353S06156 1960 109 SP MM NOT_NAMED 1959-12-26 11:00:00 TS -15.6188 162.432 990 bom main 449 440 P_____O__PO___ SH041960 -15.3307 163.336 -1 -15.3000 163.200 990 -15.3307 163.336 TC -15.3000 163.300 1 5 157
1959353S06156 1960 109 SP MM NOT_NAMED 1959-12-26 12:00:00 TS -15.6923 162.464 main 440 432 O_____P__OP___ jtwc_sh SH041960 -15.4000 163.400 -1 -15.3699 163.259 990 -15.4000 163.400 TC -15.3687 163.356 1 5 156
1959353S06156 1960 109 SP MM NOT_NAMED 1959-12-26 15:00:00 TS -15.9110 162.559 main 432 432 P_____P__PP___ SH041960 -15.5850 163.565 -1 -15.6018 163.442 990 -15.5850 163.565 TC -15.5963 163.519 1 5 158
1959353S06156 1960 109 SP MM NOT_NAMED 1959-12-26 18:00:00 TS -16.1429 162.652 main 424 424 O_____P__OP___ jtwc_sh SH041960 -15.8000 163.700 -1 -15.8569 163.625 990 -15.8000 163.700 TC -15.8489 163.673 1 5 161
1959353S06156 1960 109 SP MM NOT_NAMED 1959-12-26 21:00:00 TS -16.3845 162.733 main 431 421 P_____P__PP___ SH041960 -16.0925 163.808 -1 -16.1229 163.798 990 -16.0925 163.808 TC -16.1171 163.814 1 5 162
1959353S06156 1960 109 SP MM NOT_NAMED 1959-12-26 23:00:00 TS -16.5627 162.790 990 bom main 425 425 P_____O__PO___ SH041960 -16.3005 163.869 -1 -16.3000 163.900 990 -16.3005 163.869 TC -16.3000 163.900 1 6 163
1959353S06156 1960 109 SP MM NOT_NAMED 1959-12-27 00:00:00 TS -16.6596 162.821 main 414 379 O_____P__OP___ jtwc_sh SH041960 -16.4000 163.900 -1 -16.3845 163.936 990 -16.4000 163.900 TC -16.3920 163.935 1 7 163
1959353S06156 1960 109 SP MM NOT_NAMED 1959-12-27 03:00:00 TS -16.9968 162.925 main 379 341 P_____P__PP___ SH041960 -16.6500 164.000 -1 -16.6385 164.025 990 -16.6500 164.000 TC -16.6749 164.028 1 7 162
1959353S06156 1960 109 SP MM NOT_NAMED 1959-12-27 06:00:00 TS -17.3683 163.062 main 330 284 O_____P__OP___ jtwc_sh SH041960 -16.9000 164.100 -1 -16.8910 164.106 990 -16.9000 164.100 TC -16.9588 164.115 1 8 162
1959353S06156 1960 109 SP MM NOT_NAMED 1959-12-27 09:00:00 TS -17.7793 163.198 main 284 260 P_____P__PP___ SH041960 -17.2075 164.185 -1 -17.1389 164.207 990 -17.2075 164.185 TC -17.2311 164.216 1 9 161
1959353S06156 1960 109 SP MM NOT_NAMED 1959-12-27 11:00:00 TS -18.0469 163.313 990 bom main 260 238 P_____O__PO___ SH041960 -17.4088 164.255 -1 -17.3000 164.300 990 -17.4088 164.255 TC -17.4000 164.300 1 9 168
1959353S06156 1960 109 SP MM NOT_NAMED 1959-12-27 12:00:00 TS -18.2309 163.297 main 238 189 O_____P__OP___ jtwc_sh SH041960 -17.5000 164.300 -1 -17.3790 164.357 989 -17.5000 164.300 TC -17.4794 164.349 1 8 161
1959353S06156 1960 109 SP MM NOT_NAMED 1959-12-27 15:00:00 TS -18.5752 163.510 main 189 151 P_____P__PP___ SH041960 -17.6176 164.530 -1 -17.6103 164.566 989 -17.7226 164.480 TC -17.6990 164.522 1 8 147
1959353S06156 1960 109 SP MM NOT_NAMED 1959-12-27 18:00:00 TS -18.9072 163.762 main 148 111 O_____P__OP___ jtwc_sh SH041960 -17.9000 164.700 -1 -17.8348 164.820 988 -17.9000 164.700 TC -17.8968 164.725 1 9 141
1959353S06156 1960 109 SP MM NOT_NAMED 1959-12-27 21:00:00 TS -19.2460 164.086 main 111 91 P_____P___P___ SH041960 -18.7946 164.519 -1 -18.0547 165.104 988 TC -18.0809 164.947 1 9 131
1959353S06156 1960 109 SP MM NOT_NAMED 1959-12-27 23:00:00 TS -19.4165 164.389 988 bom main 94 78 P_____O___O___ SH041960 -19.3907 164.452 -1 -18.2000 165.300 988 4 TC -18.2000 165.100 1 11 132
1959353S06156 1960 109 SP MM NOT_NAMED 1959-12-28 00:00:00 TS -19.6000 164.500 main 78 70 O_____________ jtwc_sh SH051960 -19.6000 164.500 -1 1 12 98
1959353S06156 1960 109 SP MM NOT_NAMED 1959-12-28 03:00:00 TS -19.5222 165.234 main 115 115 P_____________ SH051960 -19.6431 165.123 -1 1 14 82
1959353S06156 1960 109 SP MM NOT_NAMED 1959-12-28 06:00:00 TS -19.4074 165.988 main 177 177 O_____________ jtwc_sh SH051960 -19.4000 166.000 -1 1 14 81
1959353S06156 1960 109 SP MM NOT_NAMED 1959-12-28 09:00:00 TS -19.2885 166.744 main 229 229 P_____________ SH051960 -19.2847 166.750 -1 1 14 82
1959353S06156 1960 109 SP MM NOT_NAMED 1959-12-28 12:00:00 TS -19.2000 167.500 main 290 290 O_____________ jtwc_sh SH051960 -19.2000 167.500 -1 14 86
1959353S06156 1960 109 SP MM NOT_NAMED 1959-12-28 15:00:00 TS -19.1849 168.212 main 293 293 P_____________ SH051960 -19.1772 168.250 -1 14 90
1959353S06156 1960 109 SP MM NOT_NAMED 1959-12-28 18:00:00 TS -19.2115 168.930 main 313 313 O_____________ jtwc_sh SH051960 -19.2000 169.000 -1 13 93
1959353S06156 1960 109 SP MM NOT_NAMED 1959-12-28 21:00:00 TS -19.2628 169.623 main 357 357 P_____________ SH051960 -19.2558 169.660 -1 15 93
1959353S06156 1960 109 SP MM NOT_NAMED 1959-12-29 00:00:00 TS -19.3000 170.500 main 415 415 O_____________ jtwc_sh SH051960 -19.3000 170.500 -1 20 89
1959353S06156 1960 109 SP MM NOT_NAMED 1959-12-29 03:00:00 TS -19.2306 171.764 main 513 439 P_____________ SH051960 -19.2725 171.730 -1 26 86
1959353S06156 1960 109 SP MM NOT_NAMED 1959-12-29 06:00:00 TS -19.1266 173.248 main 439 286 O_____________ jtwc_sh SH051960 -19.2000 173.200 -1 29 85
1959353S06156 1960 109 SP MM NOT_NAMED 1959-12-29 09:00:00 TS -18.9932 174.835 main 276 153 P_____________ SH051960 -19.0414 174.811 -1 29 87
1959353S06156 1960 109 SP MM NOT_NAMED 1959-12-29 12:00:00 TS -19.0000 176.300 main 145 113 O_____________ jtwc_sh SH051960 -19.0000 176.300 -1 24 96
1959353S06156 1960 109 SP MM NOT_NAMED 1959-12-29 15:00:00 TS -19.2298 177.336 main 116 113 P_____________ SH051960 -19.1977 177.333 -1 20 112
1959353S06156 1960 109 SP MM NOT_NAMED 1959-12-29 18:00:00 TS -19.7346 178.221 main 156 156 O_____________ jtwc_sh SH051960 -19.7000 178.200 -1 21 126
1959353S06156 1960 109 SP MM NOT_NAMED 1959-12-29 21:00:00 TS -20.4781 179.145 main 263 263 P_____________ SH051960 -20.4484 179.128 -1 26 134
1959353S06156 1960 109 SP MM NOT_NAMED 1959-12-30 00:00:00 TS -21.5000 180.200 main 411 411 O_____________ jtwc_sh SH051960 -21.5000 -179.800 -1 32 135
1959353S06156 1960 109 SP MM NOT_NAMED 1959-12-30 03:00:00 TS -22.7566 181.584 main 606 606 P_____________ SH051960 -22.7756 -178.417 -1 38 135
1959353S06156 1960 109 SP MM NOT_NAMED 1959-12-30 06:00:00 TS -24.1778 183.100 main 820 820 O_____________ jtwc_sh SH051960 -24.2000 -176.900 -1 40 136
1959353S06156 1960 109 SP MM NOT_NAMED 1959-12-30 09:00:00 TS -25.6267 184.611 main 1035 1035 P_____________ SH051960 -25.6375 -175.391 -1 39 137
1959353S06156 1960 109 SP MM NOT_NAMED 1959-12-30 12:00:00 TS -27.0000 186.000 main 1244 1244 O_____________ jtwc_sh SH051960 -27.0000 -174.000 -1 34 138
1959353S06156 1960 109 SP MM NOT_NAMED 1959-12-30 15:00:00 TS -28.1795 187.153 main 1326 1285 P_____________ SH051960 -28.1583 -172.842 -1 29 140
1959353S06156 1960 109 SP MM NOT_NAMED 1959-12-30 18:00:00 TS -29.2318 188.092 main 1291 1255 O_____________ jtwc_sh SH051960 -29.2000 -171.900 -1 26 144
1959353S06156 1960 109 SP MM NOT_NAMED 1959-12-30 21:00:00 TS -30.2281 188.881 main 1262 1238 P_____________ SH051960 -30.2060 -171.113 -1 24 146
1959353S06156 1960 109 SP MM NOT_NAMED 1959-12-31 00:00:00 TS -31.2000 189.600 main 1238 O_____________ jtwc_sh SH051960 -31.2000 -170.400 -1 23 148

デジタル台風データ・検索

IBTrACS Databaseについて

本データベースは、米国NOAAが公開する1842年以降の世界の熱帯低気圧のベストトラックデータアーカイブInternational Best Track Archive for Climate Stewardship (IBTrACS)を、ウェブで閲覧しやすい形式に変換したものです。

最終更新日:2021-11-26